SAS1778 EKVG-EKCH
Flight info
| Callsign | SAS1778 |
|---|---|
| Flight time | N/A |
| Altitude | 37000 |
| Route | ODEVA DCT GUNPA/N0434F370 DCT TESPI |
| Aircraft | A320/M-SDE3FGHIRWY/LB1 |
Departure
| Time | 2026-04-28 10:21 |
|---|---|
| Airport | Vágar Airport (EKVG) |
Arrival
| Time | N/A |
|---|---|
| Airport | Copenhagen Kastrup Airport (EKCH) |
| Time | Latitude | Longitude | Altitude | Speed | Heading |
|---|---|---|---|---|---|
| 2026-04-28 09:50 | 62.06712 | -7.28025 | 293 ft | 0 kts | 76° |
| 2026-04-28 10:08 | 62.06712 | -7.28026 | 289 ft | 0 kts | 76° |
| 2026-04-28 10:17 | 62.06712 | -7.28024 | 289 ft | 1 kts | 78° |
| 2026-04-28 10:17 | 62.06709 | -7.28019 | 289 ft | 1 kts | 116° |
| 2026-04-28 10:17 | 62.06703 | -7.28021 | 293 ft | 1 kts | 176° |
| 2026-04-28 10:17 | 62.06697 | -7.28035 | 294 ft | 3 kts | 217° |
| 2026-04-28 10:18 | 62.06673 | -7.28070 | 292 ft | 6 kts | 207° |
| 2026-04-28 10:18 | 62.06626 | -7.28087 | 289 ft | 8 kts | 184° |
| 2026-04-28 10:18 | 62.06554 | -7.28105 | 288 ft | 13 kts | 191° |
| 2026-04-28 10:18 | 62.06492 | -7.28229 | 286 ft | 15 kts | 269° |
| 2026-04-28 10:19 | 62.06545 | -7.28464 | 282 ft | 20 kts | 297° |
| 2026-04-28 10:19 | 62.06611 | -7.28736 | 283 ft | 19 kts | 297° |
| 2026-04-28 10:19 | 62.06675 | -7.28993 | 279 ft | 11 kts | 298° |
| 2026-04-28 10:19 | 62.06715 | -7.29134 | 277 ft | 11 kts | 322° |
| 2026-04-28 10:20 | 62.06726 | -7.29212 | 275 ft | 2 kts | 180° |
| 2026-04-28 10:20 | 62.06721 | -7.29187 | 275 ft | 0 kts | 117° |
| 2026-04-28 10:20 | 62.06708 | -7.29132 | 277 ft | 27 kts | 117° |
| 2026-04-28 10:20 | 62.06472 | -7.28183 | 288 ft | 114 kts | 118° |
| 2026-04-28 10:21 | 62.06001 | -7.26314 | 507 ft | 155 kts | 125° |
| 2026-04-28 10:21 | 62.05480 | -7.24253 | 1304 ft | 167 kts | 127° |
| 2026-04-28 10:21 | 62.05117 | -7.22822 | 1838 ft | 164 kts | 126° |
| 2026-04-28 10:21 | 62.04388 | -7.19920 | 2631 ft | 166 kts | 125° |
| 2026-04-28 10:22 | 62.04032 | -7.18481 | 3011 ft | 165 kts | 125° |
| 2026-04-28 10:22 | 62.03496 | -7.16312 | 3535 ft | 167 kts | 123° |
| 2026-04-28 10:22 | 62.02920 | -7.14004 | 3835 ft | 187 kts | 123° |
| 2026-04-28 10:22 | 62.02265 | -7.11404 | 4089 ft | 211 kts | 123° |
| 2026-04-28 10:23 | 62.01534 | -7.08497 | 4349 ft | 236 kts | 123° |
| 2026-04-28 10:23 | 62.00720 | -7.05243 | 4736 ft | 261 kts | 122° |
| 2026-04-28 10:23 | 61.99869 | -7.01652 | 5311 ft | 279 kts | 121° |
| 2026-04-28 10:23 | 61.99013 | -6.97885 | 6176 ft | 285 kts | 120° |
| 2026-04-28 10:24 | 61.98155 | -6.94064 | 7069 ft | 288 kts | 119° |
| 2026-04-28 10:24 | 61.97294 | -6.90244 | 7889 ft | 292 kts | 119° |
| 2026-04-28 10:24 | 61.96402 | -6.86330 | 8699 ft | 296 kts | 119° |
| 2026-04-28 10:24 | 61.95494 | -6.82369 | 9543 ft | 300 kts | 118° |
| 2026-04-28 10:25 | 61.94571 | -6.78350 | 10358 ft | 304 kts | 118° |
| 2026-04-28 10:25 | 61.93611 | -6.74216 | 10767 ft | 323 kts | 118° |
| 2026-04-28 10:25 | 61.92571 | -6.69784 | 11024 ft | 344 kts | 118° |